createdAt,value
2023-04-26T00:00:01.657Z,6.90
2023-04-26T00:02:30.227Z,6.90
2023-04-26T00:05:02.426Z,6.80
2023-04-26T00:07:30.762Z,6.80
2023-04-26T00:09:58.421Z,6.70
2023-04-26T00:12:26.429Z,6.70
2023-04-26T00:14:54.107Z,6.70
2023-04-26T00:17:24.147Z,6.70
2023-04-26T00:19:52.049Z,6.70
2023-04-26T00:22:20.183Z,6.60
2023-04-26T00:24:47.867Z,6.50
2023-04-26T00:27:19.161Z,6.40
2023-04-26T00:29:47.158Z,6.40
2023-04-26T00:32:15.118Z,6.30
2023-04-26T00:34:42.854Z,6.30
2023-04-26T00:37:10.834Z,6.30
2023-04-26T00:39:38.500Z,6.30
2023-04-26T00:42:06.578Z,6.30
2023-04-26T00:44:34.401Z,6.30
2023-04-26T00:47:02.489Z,6.20
2023-04-26T00:49:31.172Z,6.20
2023-04-26T00:51:59.660Z,6.20
2023-04-26T00:54:27.452Z,6.20
2023-04-26T00:57:46.288Z,6.20
2023-04-26T01:00:16.317Z,6.20
2023-04-26T01:02:44.485Z,6.30
2023-04-26T01:05:13.473Z,6.20
2023-04-26T01:07:41.436Z,6.30
2023-04-26T01:10:10.148Z,6.30
2023-04-26T01:12:39.085Z,6.30
2023-04-26T01:15:07.660Z,6.30
2023-04-26T01:17:37.860Z,6.30
2023-04-26T01:20:08.953Z,6.30
2023-04-26T01:22:36.879Z,6.30
2023-04-26T01:25:07.936Z,6.30
2023-04-26T01:27:36.300Z,6.30
2023-04-26T01:30:05.348Z,6.30
2023-04-26T01:32:33.116Z,6.30
2023-04-26T01:35:01.177Z,6.30
2023-04-26T01:37:28.974Z,6.30
2023-04-26T01:40:00.939Z,6.30
2023-04-26T01:42:28.684Z,6.40
2023-04-26T01:44:56.665Z,6.30
2023-04-26T01:47:26.393Z,6.40
2023-04-26T01:49:54.515Z,6.30
2023-04-26T01:52:23.224Z,6.30
2023-04-26T01:54:51.465Z,6.30
2023-04-26T01:57:21.256Z,6.30
2023-04-26T01:59:49.681Z,6.30
2023-04-26T02:02:18.822Z,6.30
2023-04-26T02:04:47.540Z,6.30
2023-04-26T02:07:15.937Z,6.30
2023-04-26T02:09:46.951Z,6.30
2023-04-26T02:12:14.692Z,6.20
2023-04-26T02:14:42.690Z,6.30
2023-04-26T02:17:11.308Z,6.30
2023-04-26T02:19:39.351Z,6.30
2023-04-26T02:22:07.984Z,6.20
2023-04-26T02:24:36.088Z,6.30
2023-04-26T02:27:04.243Z,6.20
2023-04-26T02:29:43.590Z,6.30
2023-04-26T02:32:15.742Z,6.30
2023-04-26T02:34:44.381Z,6.30
2023-04-26T02:37:12.155Z,6.30
2023-04-26T02:39:40.240Z,6.30
2023-04-26T02:42:11.123Z,6.20
2023-04-26T02:44:39.797Z,6.30
2023-04-26T02:47:08.089Z,6.30
2023-04-26T02:49:36.195Z,6.30
2023-04-26T02:52:04.236Z,6.30
2023-04-26T02:54:33.389Z,6.30
2023-04-26T02:57:01.444Z,6.40
2023-04-26T02:59:30.026Z,6.40
2023-04-26T03:01:58.261Z,6.40
2023-04-26T03:04:26.303Z,6.40
2023-04-26T03:06:54.041Z,6.40
2023-04-26T03:09:22.411Z,6.40
2023-04-26T03:11:52.667Z,6.50
2023-04-26T03:14:21.438Z,6.40
2023-04-26T03:16:51.870Z,6.40
2023-04-26T03:19:19.882Z,6.40
2023-04-26T03:21:50.240Z,6.40
2023-04-26T03:24:18.468Z,6.40
2023-04-26T03:26:46.772Z,6.40
2023-04-26T03:29:14.972Z,6.50
2023-04-26T03:31:42.844Z,6.50
2023-04-26T03:34:11.554Z,6.50
2023-04-26T03:36:41.752Z,6.50
2023-04-26T03:39:09.915Z,6.50
2023-04-26T03:41:39.646Z,6.60
2023-04-26T03:44:10.222Z,6.50
2023-04-26T03:46:37.958Z,6.50
2023-04-26T03:49:06.241Z,6.50
2023-04-26T03:51:34.902Z,6.40
2023-04-26T03:54:03.537Z,6.50
2023-04-26T03:56:31.467Z,6.50
2023-04-26T03:58:59.746Z,6.50
2023-04-26T04:01:28.583Z,6.50
2023-04-26T04:03:56.923Z,6.60
2023-04-26T04:06:25.461Z,6.50
2023-04-26T04:08:53.715Z,6.60
2023-04-26T04:11:23.260Z,6.50
2023-04-26T04:13:52.052Z,6.60
2023-04-26T04:16:22.265Z,6.60
2023-04-26T04:18:50.767Z,6.60
2023-04-26T04:21:18.606Z,6.60
2023-04-26T04:23:47.675Z,6.60
2023-04-26T04:26:17.544Z,6.60
2023-04-26T04:28:47.305Z,6.50
2023-04-26T04:31:15.338Z,6.50
2023-04-26T04:33:43.450Z,6.50
2023-04-26T04:36:11.266Z,6.50
2023-04-26T04:38:39.770Z,6.40
2023-04-26T04:41:08.769Z,6.40
2023-04-26T04:43:37.381Z,6.40
2023-04-26T04:46:08.373Z,6.40
2023-04-26T04:48:38.932Z,6.30
2023-04-26T04:51:06.710Z,6.40
2023-04-26T04:53:35.113Z,6.30
2023-04-26T04:56:03.194Z,6.30
2023-04-26T04:58:31.795Z,6.30
2023-04-26T05:01:01.397Z,6.40
2023-04-26T05:03:31.986Z,6.40
2023-04-26T05:06:01.418Z,6.50
2023-04-26T05:08:29.969Z,6.50
2023-04-26T05:11:01.977Z,6.50
2023-04-26T05:13:30.310Z,6.50
2023-04-26T05:15:58.030Z,6.60
2023-04-26T05:18:26.320Z,6.60
2023-04-26T05:20:54.466Z,6.60
2023-04-26T05:23:22.557Z,6.70
2023-04-26T05:25:51.146Z,6.70
2023-04-26T05:28:39.421Z,6.70
2023-04-26T05:31:21.623Z,6.70
2023-04-26T05:34:00.367Z,6.80
2023-04-26T05:36:35.727Z,6.80
2023-04-26T05:39:05.800Z,6.80
2023-04-26T05:41:36.598Z,6.80
2023-04-26T05:44:04.750Z,6.90
2023-04-26T05:46:33.192Z,6.90
2023-04-26T05:49:01.286Z,7.00
2023-04-26T05:51:29.589Z,7.00
2023-04-26T05:53:58.080Z,7.10
2023-04-26T05:56:26.408Z,7.20
2023-04-26T05:58:54.533Z,7.20
2023-04-26T06:01:22.322Z,7.30
2023-04-26T06:03:51.666Z,7.40
2023-04-26T06:06:23.575Z,7.40
2023-04-26T06:08:53.935Z,7.40
2023-04-26T06:11:22.357Z,7.50
2023-04-26T06:13:50.769Z,7.50
2023-04-26T06:16:19.436Z,7.60
2023-04-26T06:18:49.347Z,7.60
2023-04-26T06:21:17.128Z,7.70
2023-04-26T06:23:45.297Z,7.70
2023-04-26T06:26:13.040Z,7.70
2023-04-26T06:28:42.314Z,7.80
2023-04-26T06:31:10.463Z,7.90
2023-04-26T06:33:38.402Z,8.00
2023-04-26T06:36:07.256Z,8.10
2023-04-26T06:38:35.010Z,8.20
2023-04-26T06:41:03.448Z,8.20
2023-04-26T06:43:31.647Z,8.20
2023-04-26T06:46:03.583Z,8.30
2023-04-26T06:48:31.365Z,8.30
2023-04-26T06:50:59.313Z,8.40
2023-04-26T06:53:26.999Z,8.40
2023-04-26T06:55:57.483Z,8.40
2023-04-26T06:58:25.393Z,8.40
2023-04-26T07:00:53.422Z,8.50
2023-04-26T07:03:21.373Z,8.50
2023-04-26T07:05:49.534Z,8.60
2023-04-26T07:08:18.378Z,8.70
2023-04-26T07:13:09.307Z,8.70
2023-04-26T07:15:37.812Z,8.90
2023-04-26T07:18:05.640Z,9.00
2023-04-26T07:20:33.800Z,9.10
2023-04-26T07:23:01.518Z,9.10
2023-04-26T07:25:29.560Z,9.10
2023-04-26T07:27:57.403Z,9.20
2023-04-26T07:30:26.323Z,9.20
2023-04-26T07:32:56.727Z,9.20
2023-04-26T07:35:24.800Z,9.20
2023-04-26T07:37:52.498Z,9.30
2023-04-26T07:40:22.795Z,9.30
2023-04-26T07:42:50.947Z,9.40
2023-04-26T07:45:19.579Z,9.40
2023-04-26T07:47:47.587Z,9.50
2023-04-26T07:50:18.062Z,9.50
2023-04-26T07:52:45.887Z,9.50
2023-04-26T07:55:14.663Z,9.60
2023-04-26T07:57:43.709Z,9.60
2023-04-26T08:00:12.741Z,9.50
2023-04-26T08:02:45.104Z,9.50
2023-04-26T08:05:14.292Z,9.40
2023-04-26T08:07:43.091Z,9.40
2023-04-26T08:10:11.596Z,9.40
2023-04-26T08:12:39.699Z,9.40
2023-04-26T08:15:08.378Z,9.30
2023-04-26T08:17:36.164Z,9.30
2023-04-26T08:20:07.151Z,9.30
2023-04-26T08:22:34.971Z,9.30
2023-04-26T08:25:04.703Z,9.30
2023-04-26T08:27:34.507Z,9.30
2023-04-26T08:30:05.613Z,9.30
2023-04-26T08:32:35.506Z,9.30
2023-04-26T08:35:03.866Z,9.20
2023-04-26T08:37:31.704Z,9.20
2023-04-26T08:39:59.901Z,9.20
2023-04-26T08:42:28.957Z,9.20
2023-04-26T08:45:02.121Z,9.20
2023-04-26T08:47:38.186Z,9.10
2023-04-26T08:50:08.494Z,9.10
2023-04-26T08:52:38.277Z,9.10
2023-04-26T08:55:10.822Z,9.10
2023-04-26T08:57:40.950Z,9.10
2023-04-26T09:00:10.542Z,9.10
2023-04-26T09:02:40.001Z,9.20
2023-04-26T09:05:09.366Z,9.10
2023-04-26T09:07:39.682Z,9.20
2023-04-26T09:10:09.345Z,9.20
2023-04-26T09:12:37.636Z,9.20
2023-04-26T09:15:09.504Z,9.20
2023-04-26T09:17:41.859Z,9.20
2023-04-26T09:20:28.003Z,9.20
2023-04-26T09:23:09.903Z,9.10
2023-04-26T09:25:38.233Z,9.10
2023-04-26T09:28:23.450Z,9.10
2023-04-26T09:30:51.507Z,9.10
2023-04-26T09:33:22.133Z,9.10
2023-04-26T09:35:50.517Z,9.20
2023-04-26T09:38:18.987Z,9.20
2023-04-26T09:40:48.722Z,9.30
2023-04-26T09:43:17.706Z,9.40
2023-04-26T09:45:50.347Z,9.80
2023-04-26T09:48:34.561Z,9.60
2023-04-26T09:51:03.150Z,9.70
2023-04-26T09:53:32.079Z,9.80
2023-04-26T09:56:14.818Z,9.80
2023-04-26T09:58:58.840Z,10.00
2023-04-26T10:01:31.453Z,10.10
2023-04-26T10:04:02.088Z,10.30
2023-04-26T10:06:30.642Z,10.50
2023-04-26T10:08:58.868Z,10.70
2023-04-26T10:11:27.381Z,10.90
2023-04-26T10:13:55.757Z,11.10
2023-04-26T10:16:24.546Z,11.20
2023-04-26T10:18:52.670Z,11.30
2023-04-26T10:21:27.671Z,11.40
2023-04-26T10:23:55.562Z,11.50
2023-04-26T10:26:49.946Z,11.50
2023-04-26T10:29:17.946Z,11.50
2023-04-26T10:32:04.561Z,11.50
2023-04-26T10:34:34.498Z,11.50
2023-04-26T10:37:16.929Z,11.50
2023-04-26T10:39:49.180Z,11.50
2023-04-26T10:42:25.532Z,11.60
2023-04-26T10:45:00.594Z,11.70
2023-04-26T10:47:31.859Z,11.80
2023-04-26T10:50:17.696Z,11.90
2023-04-26T10:53:03.983Z,12.00
2023-04-26T10:55:42.314Z,12.00
2023-04-26T10:58:46.370Z,11.90
2023-04-26T11:01:20.666Z,11.90
2023-04-26T11:03:58.353Z,11.90
2023-04-26T11:06:27.106Z,12.00
2023-04-26T11:08:55.339Z,12.00
2023-04-26T11:11:28.901Z,12.00
2023-04-26T11:13:57.389Z,12.00
2023-04-26T11:16:29.415Z,12.00
2023-04-26T11:18:57.566Z,12.00
2023-04-26T11:21:26.998Z,11.90
2023-04-26T11:23:55.401Z,11.90
2023-04-26T11:26:24.786Z,12.00
2023-04-26T11:28:52.951Z,12.00
2023-04-26T11:31:20.863Z,12.00
2023-04-26T11:33:50.811Z,12.20
2023-04-26T11:36:19.857Z,12.30
2023-04-26T11:38:48.300Z,12.30
2023-04-26T11:41:16.063Z,12.40
2023-04-26T11:43:44.075Z,12.40
2023-04-26T11:46:12.090Z,12.50
2023-04-26T11:48:40.987Z,12.60
2023-04-26T11:51:09.497Z,12.70
2023-04-26T11:53:43.238Z,12.60
2023-04-26T11:56:17.828Z,12.60
2023-04-26T11:58:51.051Z,12.50
2023-04-26T12:01:27.138Z,12.50
2023-04-26T12:03:57.608Z,12.60
2023-04-26T12:06:45.700Z,12.60
2023-04-26T12:09:13.962Z,12.70
2023-04-26T12:11:41.725Z,12.80
2023-04-26T12:14:10.202Z,12.80
2023-04-26T12:16:38.321Z,12.80
2023-04-26T12:19:08.310Z,12.80
2023-04-26T12:21:45.381Z,12.80
2023-04-26T12:24:26.700Z,12.90
2023-04-26T12:26:54.409Z,12.90
2023-04-26T12:29:22.606Z,12.90
2023-04-26T12:31:50.617Z,13.00
2023-04-26T12:34:18.696Z,13.00
2023-04-26T12:36:46.546Z,13.00
2023-04-26T12:39:15.843Z,13.10
2023-04-26T12:41:44.649Z,13.10
2023-04-26T12:44:14.322Z,13.10
2023-04-26T12:46:42.402Z,13.10
2023-04-26T12:49:10.558Z,13.10
2023-04-26T12:51:38.690Z,13.20
2023-04-26T12:54:09.322Z,13.30
2023-04-26T12:56:43.490Z,13.30
2023-04-26T12:59:11.743Z,13.40
2023-04-26T13:01:39.680Z,13.40
2023-04-26T13:04:08.066Z,13.50
2023-04-26T13:06:36.195Z,13.40
2023-04-26T13:09:04.493Z,13.30
2023-04-26T13:11:32.250Z,13.30
2023-04-26T13:14:02.106Z,13.30
2023-04-26T13:16:30.228Z,13.30
2023-04-26T13:18:58.365Z,13.40
2023-04-26T13:23:47.432Z,13.40
2023-04-26T13:26:19.971Z,13.40
2023-04-26T13:28:48.380Z,13.40
2023-04-26T13:31:17.574Z,13.40
2023-04-26T13:33:47.435Z,13.40
2023-04-26T13:36:18.126Z,13.40
2023-04-26T13:38:45.844Z,13.40
2023-04-26T13:41:14.381Z,13.50
2023-04-26T13:43:42.250Z,13.60
2023-04-26T13:46:10.337Z,13.60
2023-04-26T13:48:38.086Z,13.70
2023-04-26T13:51:07.324Z,13.70
2023-04-26T13:53:35.249Z,13.60
2023-04-26T13:56:03.892Z,13.50
2023-04-26T13:58:32.198Z,13.50
2023-04-26T14:01:00.525Z,13.60
2023-04-26T14:03:28.398Z,13.80
2023-04-26T14:05:56.670Z,14.00
2023-04-26T14:08:24.518Z,14.10
2023-04-26T14:10:53.281Z,14.20
2023-04-26T14:13:21.186Z,14.40
2023-04-26T14:15:49.825Z,14.40
2023-04-26T14:18:18.031Z,14.30
2023-04-26T14:20:46.858Z,14.10
2023-04-26T14:23:15.034Z,14.00
2023-04-26T14:25:43.074Z,13.90
2023-04-26T14:28:10.984Z,13.90
2023-04-26T14:30:39.122Z,14.00
2023-04-26T14:33:06.969Z,14.10
2023-04-26T14:35:35.887Z,14.20
2023-04-26T14:38:03.705Z,14.40
2023-04-26T14:40:34.036Z,14.70
2023-04-26T14:43:01.809Z,14.90
2023-04-26T14:45:43.374Z,14.90
2023-04-26T14:48:12.832Z,14.90
2023-04-26T14:50:41.801Z,14.90
2023-04-26T14:53:10.416Z,14.90
2023-04-26T14:55:38.591Z,14.80
2023-04-26T14:58:06.392Z,14.70
2023-04-26T15:00:34.408Z,14.50
2023-04-26T15:03:02.376Z,14.30
2023-04-26T15:05:30.499Z,14.00
2023-04-26T15:07:58.291Z,13.80
2023-04-26T15:10:26.404Z,13.60
2023-04-26T15:12:54.132Z,13.60
2023-04-26T15:15:22.888Z,13.50
2023-04-26T15:17:50.916Z,13.40
2023-04-26T15:20:19.180Z,13.40
2023-04-26T15:22:46.969Z,13.40
2023-04-26T15:25:15.619Z,13.40
2023-04-26T15:27:43.412Z,13.40
2023-04-26T15:30:12.170Z,13.40
2023-04-26T15:32:40.004Z,13.40
2023-04-26T15:35:10.070Z,13.30
2023-04-26T15:37:38.153Z,13.30
2023-04-26T15:40:10.595Z,13.30
2023-04-26T15:42:39.351Z,13.20
2023-04-26T15:45:10.228Z,13.10
2023-04-26T15:47:38.145Z,13.10
2023-04-26T15:50:07.848Z,13.10
2023-04-26T15:52:38.927Z,13.10
2023-04-26T15:55:07.988Z,13.20
2023-04-26T15:57:35.802Z,13.10
2023-04-26T16:00:05.995Z,13.10
2023-04-26T16:02:35.704Z,13.10
2023-04-26T16:05:04.613Z,13.00
2023-04-26T16:07:32.710Z,13.00
2023-04-26T16:10:01.388Z,13.00
2023-04-26T16:12:29.256Z,12.90
2023-04-26T16:14:58.234Z,12.90
2023-04-26T16:17:26.044Z,12.80
2023-04-26T16:19:54.038Z,12.80
2023-04-26T16:22:22.105Z,12.90
2023-04-26T16:24:50.128Z,12.90
2023-04-26T16:27:18.102Z,12.80
2023-04-26T16:29:48.557Z,12.90
2023-04-26T16:32:16.468Z,12.80
2023-04-26T16:34:44.577Z,12.80
2023-04-26T16:37:12.517Z,12.80
2023-04-26T16:39:41.074Z,12.80
2023-04-26T16:42:08.862Z,12.80
2023-04-26T16:44:37.266Z,12.80
2023-04-26T16:47:05.204Z,12.70
2023-04-26T16:49:33.355Z,12.70
2023-04-26T16:52:01.817Z,12.70
2023-04-26T16:54:29.988Z,12.70
2023-04-26T16:56:58.305Z,12.70
2023-04-26T16:59:27.586Z,12.70
2023-04-26T17:01:55.388Z,12.70
2023-04-26T17:04:23.714Z,12.60
2023-04-26T17:06:51.650Z,12.60
2023-04-26T17:09:20.036Z,12.60
2023-04-26T17:11:47.843Z,12.60
2023-04-26T17:14:15.979Z,12.60
2023-04-26T17:16:44.010Z,12.50
2023-04-26T17:19:12.507Z,12.50
2023-04-26T17:21:40.421Z,12.50
2023-04-26T17:24:11.012Z,12.50
2023-04-26T17:26:38.846Z,12.40
2023-04-26T17:29:06.972Z,12.40
2023-04-26T17:31:34.848Z,12.40
2023-04-26T17:34:04.882Z,12.30
2023-04-26T17:36:32.937Z,12.20
2023-04-26T17:39:01.392Z,12.00
2023-04-26T17:41:29.286Z,11.90
2023-04-26T17:43:57.284Z,11.80
2023-04-26T17:46:25.248Z,11.70
2023-04-26T17:48:53.306Z,11.70
2023-04-26T17:51:21.201Z,11.60
2023-04-26T17:53:51.860Z,11.60
2023-04-26T17:56:19.577Z,11.60
2023-04-26T17:58:48.700Z,11.50
2023-04-26T18:01:16.446Z,11.50
2023-04-26T18:03:44.676Z,11.40
2023-04-26T18:06:12.650Z,11.40
2023-04-26T18:08:45.716Z,11.30
2023-04-26T18:11:13.588Z,11.30
2023-04-26T18:13:41.746Z,11.20
2023-04-26T18:16:09.560Z,11.20
2023-04-26T18:18:37.549Z,11.20
2023-04-26T18:21:05.461Z,11.10
2023-04-26T18:23:33.625Z,11.00
2023-04-26T18:26:01.350Z,11.00
2023-04-26T18:28:29.615Z,11.00
2023-04-26T18:31:01.000Z,11.00
2023-04-26T18:33:29.296Z,10.90
2023-04-26T18:35:57.029Z,10.90
2023-04-26T18:38:25.104Z,10.90
2023-04-26T18:40:52.940Z,10.90
2023-04-26T18:43:21.275Z,10.90
2023-04-26T18:45:49.744Z,10.90
2023-04-26T18:48:17.767Z,10.80
2023-04-26T18:50:52.438Z,10.80
2023-04-26T18:53:22.283Z,10.70
2023-04-26T18:55:53.427Z,10.70
2023-04-26T18:58:21.660Z,10.70
2023-04-26T19:00:50.224Z,10.60
2023-04-26T19:03:21.113Z,10.60
2023-04-26T19:05:49.272Z,10.70
2023-04-26T19:08:18.444Z,10.60
2023-04-26T19:10:48.834Z,10.60
2023-04-26T19:13:18.541Z,10.60
2023-04-26T19:15:46.797Z,10.60
2023-04-26T19:18:17.951Z,10.60
2023-04-26T19:20:46.021Z,10.60
2023-04-26T19:23:14.132Z,10.60
2023-04-26T19:25:41.943Z,10.60
2023-04-26T19:28:10.084Z,10.50
2023-04-26T19:30:38.266Z,10.50
2023-04-26T19:33:06.353Z,10.50
2023-04-26T19:35:34.631Z,10.50
2023-04-26T19:38:05.278Z,10.50
2023-04-26T19:40:33.019Z,10.50
2023-04-26T19:43:01.193Z,10.50
2023-04-26T19:45:29.406Z,10.50
2023-04-26T19:47:57.624Z,10.50
2023-04-26T19:50:25.450Z,10.40
2023-04-26T19:52:53.513Z,10.50
2023-04-26T19:55:21.333Z,10.40
2023-04-26T19:57:52.022Z,10.50
2023-04-26T20:00:20.019Z,10.50
2023-04-26T20:02:49.889Z,10.40
2023-04-26T20:05:18.082Z,10.50
2023-04-26T20:07:46.497Z,10.40
2023-04-26T20:10:15.106Z,10.40
2023-04-26T20:12:43.621Z,10.40
2023-04-26T20:15:12.197Z,10.40
2023-04-26T20:17:40.263Z,10.40
2023-04-26T20:20:10.176Z,10.40
2023-04-26T20:22:39.734Z,10.30
2023-04-26T20:25:08.037Z,10.40
2023-04-26T20:27:36.350Z,10.40
2023-04-26T20:30:04.582Z,10.40
2023-04-26T20:32:32.778Z,10.30
2023-04-26T20:35:00.722Z,10.30
2023-04-26T20:37:28.845Z,10.30
2023-04-26T20:39:57.527Z,10.30
2023-04-26T20:42:25.658Z,10.30
2023-04-26T20:44:53.840Z,10.30
2023-04-26T20:47:22.694Z,10.20
2023-04-26T20:49:50.606Z,10.30
2023-04-26T20:52:19.145Z,10.30
2023-04-26T20:54:46.995Z,10.20
2023-04-26T20:57:14.988Z,10.20
2023-04-26T20:59:42.704Z,10.20
2023-04-26T21:02:11.565Z,10.20
2023-04-26T21:04:41.870Z,10.20
2023-04-26T21:07:10.931Z,10.20
2023-04-26T21:09:39.098Z,10.30
2023-04-26T21:12:07.408Z,10.30
2023-04-26T21:14:35.124Z,10.30
2023-04-26T21:17:05.510Z,10.30
2023-04-26T21:19:33.401Z,10.30
2023-04-26T21:22:01.460Z,10.30
2023-04-26T21:24:29.251Z,10.30
2023-04-26T21:26:57.326Z,10.30
2023-04-26T21:29:25.066Z,10.30
2023-04-26T21:31:53.153Z,10.30
2023-04-26T21:34:20.966Z,10.30
2023-04-26T21:36:49.101Z,10.30
2023-04-26T21:39:18.127Z,10.30
2023-04-26T21:41:46.155Z,10.30
2023-04-26T21:44:13.863Z,10.30
2023-04-26T21:46:42.015Z,10.20
2023-04-26T21:49:10.446Z,10.20
2023-04-26T21:51:38.848Z,10.20
2023-04-26T21:54:07.152Z,10.20
2023-04-26T21:56:35.229Z,10.20
2023-04-26T21:59:03.037Z,10.20
2023-04-26T22:01:31.207Z,10.10
2023-04-26T22:03:59.274Z,10.10
2023-04-26T22:06:27.437Z,10.10
2023-04-26T22:08:55.335Z,10.10
2023-04-26T22:11:23.431Z,10.10
2023-04-26T22:13:51.546Z,10.00
2023-04-26T22:16:19.659Z,10.00
2023-04-26T22:18:47.400Z,10.00
2023-04-26T22:21:15.590Z,9.90
2023-04-26T22:23:45.498Z,10.00
2023-04-26T22:26:13.635Z,9.90
2023-04-26T22:28:41.568Z,9.90
2023-04-26T22:31:09.688Z,9.80
2023-04-26T22:33:39.806Z,9.80
2023-04-26T22:36:08.191Z,9.80
2023-04-26T22:38:36.065Z,9.70
2023-04-26T22:41:07.155Z,9.70
2023-04-26T22:43:35.906Z,9.60
2023-04-26T22:46:04.052Z,9.60
2023-04-26T22:48:31.919Z,9.50
2023-04-26T22:51:00.157Z,9.50
2023-04-26T22:53:27.902Z,9.40
2023-04-26T22:55:55.869Z,9.40
2023-04-26T22:58:23.544Z,9.40
2023-04-26T23:00:51.546Z,9.30
2023-04-26T23:03:19.420Z,9.30
2023-04-26T23:05:47.691Z,9.30
2023-04-26T23:08:15.789Z,9.30
2023-04-26T23:10:43.769Z,9.20
2023-04-26T23:13:11.598Z,9.20
2023-04-26T23:16:13.262Z,9.10
2023-04-26T23:18:44.159Z,9.10
2023-04-26T23:21:12.095Z,9.10
2023-04-26T23:23:40.994Z,9.00
2023-04-26T23:26:08.770Z,8.90
2023-04-26T23:28:36.752Z,8.90
2023-04-26T23:31:04.620Z,8.80
2023-04-26T23:33:32.686Z,8.80
2023-04-26T23:36:00.371Z,8.80
2023-04-26T23:38:28.701Z,8.70
2023-04-26T23:40:56.380Z,8.70
2023-04-26T23:43:24.446Z,8.60
2023-04-26T23:45:52.375Z,8.60
2023-04-26T23:48:22.889Z,8.60
2023-04-26T23:50:50.859Z,8.60
2023-04-26T23:53:18.862Z,8.50
2023-04-26T23:55:46.876Z,8.50
2023-04-26T23:58:14.856Z,8.40
